Time;durP1;ratioP1;P1;durP2;ratioP2;P2;SDS_P1;SDS_P2;PMS_P1;PMS_P2;Temp;Humidity;BMP_temperature;BMP_pressure;BME280_temperature;BME280_humidity;BME280_pressure;Samples;Min_cycle;Max_cycle;Signal;HPM_P1;HPM_P2
2022/07/24 00:02:01;;;;;;;4.68;4.32;;;25.50;54.60;26.70;101153.00;;;;5071783;28;20172;-42
2022/07/24 00:04:27;;;;;;;7.25;4.70;;;25.50;54.60;26.70;101150.00;;;;5071962;28;20208;-43
2022/07/24 00:06:53;;;;;;;4.50;4.20;;;25.50;54.60;26.60;101147.00;;;;5076372;28;20177;-43
2022/07/24 00:09:18;;;;;;;5.10;4.70;;;25.40;54.50;26.60;101152.00;;;;5073829;28;20198;-43
2022/07/24 00:11:44;;;;;;;4.95;4.60;;;25.40;54.50;26.60;101151.00;;;;5071897;28;20185;-43
2022/07/24 00:14:10;;;;;;;4.60;4.15;;;25.40;54.50;26.60;101156.00;;;;5071576;28;20646;-43
2022/07/24 00:16:36;;;;;;;4.30;4.00;;;25.40;54.50;26.50;101148.00;;;;5071432;28;20685;-43
2022/07/24 00:19:02;;;;;;;4.80;4.40;;;25.30;54.20;26.50;101148.00;;;;5071127;28;20281;-43
2022/07/24 00:21:27;;;;;;;5.35;4.50;;;25.30;54.40;26.50;101153.00;;;;5073589;28;20166;-44
2022/07/24 00:23:53;;;;;;;5.03;4.60;;;25.20;54.40;26.40;101151.00;;;;5074996;28;20189;-41
2022/07/24 00:26:19;;;;;;;5.47;4.70;;;25.10;54.70;26.40;101150.00;;;;5068866;28;20178;-43
2022/07/24 00:28:44;;;;;;;5.07;4.28;;;25.10;54.60;26.30;101152.00;;;;5072340;28;20255;-43
2022/07/24 00:31:10;;;;;;;4.93;4.43;;;25.10;54.90;26.30;101148.00;;;;5075821;28;20185;-42
2022/07/24 00:33:36;;;;;;;4.68;4.28;;;25.10;54.80;26.30;101153.00;;;;5071889;28;20173;-42
2022/07/24 00:36:02;;;;;;;5.07;4.57;;;25.10;54.80;26.30;101160.00;;;;5071057;28;20174;-43
2022/07/24 00:38:28;;;;;;;4.82;4.32;;;25.00;55.00;26.30;101155.00;;;;5070930;28;20204;-42
2022/07/24 00:40:53;;;;;;;5.38;4.80;;;25.00;55.10;26.20;101148.00;;;;5071340;28;20284;-41
2022/07/24 00:43:20;;;;;;;6.15;4.95;;;25.00;55.30;26.20;101154.00;;;;5071778;28;20169;-43
2022/07/24 00:45:46;;;;;;;5.32;4.75;;;25.00;55.10;26.20;101147.00;;;;5071516;28;20581;-44
2022/07/24 00:48:12;;;;;;;5.00;4.60;;;25.00;55.10;26.20;101143.00;;;;5070626;28;20162;-43
2022/07/24 00:50:37;;;;;;;5.35;4.72;;;25.00;55.10;26.10;101143.00;;;;5070709;28;20177;-42
2022/07/24 00:53:03;;;;;;;5.00;4.50;;;25.10;55.00;26.10;101145.00;;;;5071072;28;20170;-43
2022/07/24 00:55:29;;;;;;;4.82;4.30;;;25.00;55.00;26.10;101143.00;;;;5070972;28;20257;-42
2022/07/24 00:57:55;;;;;;;4.95;4.55;;;25.00;55.00;26.10;101144.00;;;;5070453;28;20205;-43
2022/07/24 01:00:21;;;;;;;4.55;4.15;;;25.00;55.00;26.10;101151.00;;;;5070583;28;20196;-43
2022/07/24 01:02:49;;;;;;;4.72;4.32;;;25.00;55.00;26.10;101148.00;;;;5077119;28;20264;-42
2022/07/24 01:05:14;;;;;;;5.07;4.50;;;25.10;55.00;26.10;101150.00;;;;5075281;28;20170;-42
2022/07/24 01:07:40;;;;;;;5.25;4.60;;;25.00;55.00;26.10;101145.00;;;;5075630;28;20157;-42
2022/07/24 01:10:07;;;;;;;5.18;4.68;;;25.00;55.00;26.10;101144.00;;;;5070575;28;20189;-42
2022/07/24 01:12:33;;;;;;;5.03;4.40;;;25.00;55.10;26.00;101147.00;;;;5069056;28;20177;-42
2022/07/24 01:14:59;;;;;;;4.70;4.07;;;25.00;55.10;26.00;101149.00;;;;5070545;28;20561;-42
2022/07/24 01:17:33;;;;;;;5.45;4.30;;;25.00;55.00;26.00;101148.00;;;;5068792;28;20181;-43
2022/07/24 01:19:59;;;;;;;4.67;4.00;;;25.00;54.90;26.00;101153.00;;;;5069945;28;20189;-43
2022/07/24 01:22:25;;;;;;;6.30;4.53;;;25.00;54.90;26.00;101152.00;;;;5068768;28;20243;-43
2022/07/24 01:24:51;;;;;;;4.18;3.88;;;24.90;54.80;26.00;101150.00;;;;5070226;28;20189;-43
2022/07/24 01:27:17;;;;;;;4.50;4.10;;;25.00;55.00;26.00;101153.00;;;;5069895;28;20150;-43
2022/07/24 01:29:43;;;;;;;4.78;4.38;;;24.90;55.00;26.00;101154.00;;;;5069105;28;20193;-43
2022/07/24 01:32:09;;;;;;;5.03;4.50;;;24.90;55.00;26.00;101154.00;;;;5069984;28;20178;-43
2022/07/24 01:34:34;;;;;;;4.78;4.30;;;24.90;55.10;25.90;101162.00;;;;5069954;28;20541;-42
2022/07/24 01:37:00;;;;;;;4.68;4.28;;;24.90;55.10;25.90;101153.00;;;;5069913;28;20237;-42
2022/07/24 01:39:26;;;;;;;4.90;4.47;;;24.90;55.10;25.90;101159.00;;;;5069607;28;20288;-42
2022/07/24 01:41:51;;;;;;;4.60;4.20;;;24.90;55.10;25.90;101156.00;;;;5069919;28;20261;-42
2022/07/24 01:44:17;;;;;;;4.50;4.13;;;24.90;55.10;25.70;101151.00;;;;5068464;28;20185;-42
2022/07/24 01:46:43;;;;;;;4.50;4.20;;;24.90;55.10;25.90;101148.00;;;;5069740;28;20169;-42
2022/07/24 01:49:09;;;;;;;5.03;4.10;;;24.90;55.10;25.90;101151.00;;;;5068357;28;20470;-43
2022/07/24 01:51:34;;;;;;;4.50;4.03;;;24.80;55.20;25.90;101138.00;;;;5069655;28;20831;-43
2022/07/24 01:54:02;;;;;;;6.18;4.70;;;24.90;55.20;25.90;101141.00;;;;5069919;28;20227;-42
2022/07/24 01:56:31;;;;;;;5.25;4.15;;;24.90;55.20;25.80;101146.00;;;;5070422;28;20174;-43
2022/07/24 01:58:57;;;;;;;5.10;4.60;;;24.80;55.80;25.80;101141.00;;;;5073349;28;20694;-43
2022/07/24 02:01:23;;;;;;;4.47;4.07;;;24.80;55.10;25.80;101132.00;;;;5069781;28;20201;-43
2022/07/24 02:03:48;;;;;;;4.70;4.30;;;24.80;55.10;25.80;101138.00;;;;5069725;28;20170;-43
2022/07/24 02:06:15;;;;;;;4.63;4.20;;;24.80;55.10;25.80;101130.00;;;;5069680;28;20201;-43
2022/07/24 02:08:40;;;;;;;4.90;4.50;;;24.80;55.10;25.80;101137.00;;;;5068862;28;20692;-43
2022/07/24 02:11:06;;;;;;;4.40;4.00;;;24.80;55.10;25.70;101134.00;;;;5068034;28;20181;-41
2022/07/24 02:13:32;;;;;;;4.73;4.37;;;24.80;55.10;25.70;101130.00;;;;5069272;28;20178;-43
2022/07/24 02:15:58;;;;;;;6.20;4.70;;;24.70;55.00;25.70;101135.00;;;;5068247;28;20169;-42
2022/07/24 02:18:23;;;;;;;4.65;4.35;;;24.70;55.10;25.70;101141.00;;;;5068840;28;20204;-42
2022/07/24 02:20:49;;;;;;;5.93;4.70;;;24.70;55.10;25.70;101133.00;;;;5069489;28;20205;-42
2022/07/24 02:23:17;;;;;;;5.05;4.40;;;24.70;55.20;25.70;101127.00;;;;5069401;28;20681;-43
2022/07/24 02:25:45;;;;;;;4.80;4.40;;;24.70;55.10;25.60;101138.00;;;;5069172;28;20177;-42
2022/07/24 02:28:11;;;;;;;5.17;4.67;;;24.70;55.20;25.60;101131.00;;;;5068960;28;20787;-42
2022/07/24 02:30:37;;;;;;;5.78;4.60;;;24.70;55.30;25.60;101129.00;;;;5068863;28;20177;-43
2022/07/24 02:33:03;;;;;;;4.78;4.38;;;24.60;55.30;25.60;101133.00;;;;5068819;28;20231;-43
2022/07/24 02:35:28;;;;;;;5.00;4.60;;;24.60;55.30;25.60;101131.00;;;;5068837;28;20662;-43
2022/07/24 02:37:54;;;;;;;4.90;4.40;;;24.60;55.40;25.60;101128.00;;;;5068855;28;20177;-43
2022/07/24 02:40:20;;;;;;;5.30;4.70;;;24.60;55.40;25.50;101127.00;;;;5069137;28;20197;-42
2022/07/24 02:42:45;;;;;;;5.00;4.45;;;24.60;55.60;25.50;101128.00;;;;5069268;28;20543;-42
2022/07/24 02:45:11;;;;;;;4.97;4.47;;;24.50;55.50;25.50;101122.00;;;;5069248;28;20174;-42
2022/07/24 02:47:53;;;;;;;4.93;4.53;;;24.50;55.50;25.50;101118.00;;;;5068561;28;20200;-43
2022/07/24 02:50:19;;;;;;;5.37;4.30;;;24.50;55.60;25.40;101117.00;;;;5067917;28;20197;-42
2022/07/24 02:52:45;;;;;;;5.17;4.37;;;24.50;55.70;25.40;101112.00;;;;5068814;28;20238;-41
2022/07/24 02:55:11;;;;;;;4.30;4.00;;;24.40;55.60;25.40;101117.00;;;;5068674;28;20173;-42
2022/07/24 02:57:37;;;;;;;4.37;3.97;;;24.40;55.60;25.40;101115.00;;;;5072349;28;20238;-43
2022/07/24 03:00:08;;;;;;;4.73;4.33;;;24.40;55.60;25.40;101110.00;;;;5068695;28;20208;-43
2022/07/24 03:02:34;;;;;;;5.20;4.70;;;24.40;55.70;25.30;101119.00;;;;5068763;28;20253;-42
2022/07/24 03:05:00;;;;;;;4.47;4.13;;;24.30;56.40;25.30;101112.00;;;;5069046;28;20189;-42
2022/07/24 03:07:27;;;;;;;4.80;4.07;;;24.20;55.80;25.20;101110.00;;;;5069044;28;20181;-42
2022/07/24 03:09:53;;;;;;;4.90;4.40;;;24.20;55.80;25.20;101105.00;;;;5068903;28;20571;-44
2022/07/24 03:12:19;;;;;;;4.77;4.27;;;24.10;55.80;25.20;101112.00;;;;5068391;28;20174;-43
2022/07/24 03:14:45;;;;;;;5.87;4.47;;;24.10;55.80;25.20;101111.00;;;;5068917;28;20177;-42
2022/07/24 03:17:10;;;;;;;5.47;4.60;;;24.00;55.90;25.10;101109.00;;;;5069107;28;20205;-42
2022/07/24 03:19:36;;;;;;;5.50;4.50;;;23.90;56.00;25.10;101107.00;;;;5067504;28;20205;-42
2022/07/24 03:22:02;;;;;;;5.63;4.53;;;23.80;56.10;25.00;101113.00;;;;5067405;28;20172;-42
2022/07/24 03:24:27;;;;;;;4.97;4.07;;;23.80;56.20;25.00;101115.00;;;;5068115;28;20174;-42
2022/07/24 03:26:53;;;;;;;4.63;4.10;;;23.80;56.30;25.00;101123.00;;;;5068901;28;20201;-42
2022/07/24 03:29:19;;;;;;;4.90;4.40;;;23.80;55.80;24.90;101112.00;;;;5068242;28;20186;-42
2022/07/24 03:31:45;;;;;;;4.53;4.13;;;23.80;56.00;24.90;101110.00;;;;5068590;28;20597;-42
2022/07/24 03:34:11;;;;;;;4.83;4.33;;;23.80;56.00;24.90;101110.00;;;;5068064;28;20166;-42
2022/07/24 03:36:37;;;;;;;6.23;4.37;;;23.70;56.10;24.80;101110.00;;;;5068115;28;20182;-44
2022/07/24 03:39:03;;;;;;;5.30;4.60;;;23.70;56.20;24.80;101104.00;;;;5067994;28;20190;-42
2022/07/24 03:41:29;;;;;;;6.60;4.30;;;23.70;56.00;24.80;101102.00;;;;5071704;28;20173;-43
2022/07/24 03:43:54;;;;;;;6.57;4.50;;;23.70;56.00;24.80;101099.00;;;;5068677;28;20358;-43
2022/07/24 03:46:20;;;;;;;4.63;4.10;;;23.80;56.00;24.80;101107.00;;;;5068494;28;20154;-42
2022/07/24 03:48:46;;;;;;;5.83;4.17;;;23.80;55.80;24.70;101111.00;;;;5070381;28;20193;-43
2022/07/24 03:51:12;;;;;;;4.80;4.40;;;23.80;55.70;24.70;101108.00;;;;5069030;28;20864;-42
2022/07/24 03:53:37;;;;;;;5.00;4.60;;;23.70;55.60;24.70;101112.00;;;;5070627;28;20617;-42
2022/07/24 03:56:08;;;;;;;4.90;4.50;;;23.70;55.40;24.70;101113.00;;;;5069737;28;20178;-42
2022/07/24 03:58:33;;;;;;;5.30;4.73;;;23.70;55.40;24.70;101117.00;;;;5067384;28;20232;-43
2022/07/24 04:00:59;;;;;;;4.50;4.20;;;23.70;55.40;24.70;101114.00;;;;5068887;28;20229;-44
2022/07/24 04:03:25;;;;;;;4.20;3.90;;;23.70;55.50;24.70;101116.00;;;;5071705;28;20614;-42
2022/07/24 04:05:51;;;;;;;4.70;4.30;;;23.70;55.40;24.70;101122.00;;;;5071141;28;20675;-42
2022/07/24 04:08:16;;;;;;;4.97;4.30;;;23.70;55.60;24.60;101123.00;;;;5075488;28;20253;-41
2022/07/24 04:10:42;;;;;;;4.80;4.30;;;23.60;55.70;24.60;101124.00;;;;5071835;28;20170;-43
2022/07/24 04:13:08;;;;;;;4.80;4.40;;;23.60;55.70;24.60;101131.00;;;;5074116;28;20173;-41
2022/07/24 04:15:33;;;;;;;4.50;4.10;;;23.60;55.70;24.60;101121.00;;;;5071683;28;20177;-43
2022/07/24 04:17:59;;;;;;;4.70;4.30;;;23.60;55.70;24.60;101121.00;;;;5070764;28;20178;-42
2022/07/24 04:20:25;;;;;;;4.73;4.30;;;23.60;55.70;24.60;101125.00;;;;5070536;28;20209;-42
2022/07/24 04:22:51;;;;;;;4.93;4.27;;;23.60;55.90;24.60;101135.00;;;;5071341;28;20389;-42
2022/07/24 04:25:17;;;;;;;4.50;4.20;;;23.60;55.90;24.60;101123.00;;;;5070998;28;20186;-42
2022/07/24 04:27:46;;;;;;;4.43;4.03;;;23.50;56.00;24.50;101122.00;;;;5071095;28;20173;-41
2022/07/24 04:30:13;;;;;;;4.67;4.10;;;23.50;55.90;24.50;101120.00;;;;5070641;28;20550;-43
2022/07/24 04:32:38;;;;;;;5.03;4.63;;;23.50;56.00;24.50;101125.00;;;;5070799;28;20261;-42
2022/07/24 04:35:05;;;;;;;5.10;4.20;;;23.50;56.00;24.50;101117.00;;;;5086721;28;20611;-43
2022/07/24 04:37:31;;;;;;;4.20;3.87;;;23.50;56.00;24.50;101122.00;;;;5070573;28;20420;-42
2022/07/24 04:39:56;;;;;;;4.50;4.20;;;23.50;56.00;24.50;101125.00;;;;5072671;28;20230;-41
2022/07/24 04:42:23;;;;;;;4.63;4.20;;;23.50;55.90;24.40;101115.00;;;;5111960;27;20267;-42
2022/07/24 04:44:48;;;;;;;4.60;4.20;;;23.50;56.00;24.40;101126.00;;;;5111365;28;20172;-43
2022/07/24 04:47:14;;;;;;;5.03;4.13;;;23.50;56.00;24.40;101116.00;;;;5111266;28;20184;-41
2022/07/24 04:49:40;;;;;;;6.90;4.20;;;23.50;55.90;24.40;101121.00;;;;5118225;28;20196;-42
2022/07/24 04:52:06;;;;;;;4.30;4.00;;;23.40;55.80;24.40;101126.00;;;;5115138;28;20245;-42
2022/07/24 04:54:31;;;;;;;5.23;4.47;;;23.40;55.90;24.40;101125.00;;;;5115198;28;20180;-42
2022/07/24 04:56:58;;;;;;;4.60;4.10;;;23.40;55.90;24.30;101115.00;;;;5110506;28;20548;-42
2022/07/24 04:59:23;;;;;;;5.17;4.20;;;23.40;55.90;24.30;101113.00;;;;5126424;27;20188;-42
2022/07/24 05:01:49;;;;;;;5.33;4.50;;;23.40;56.00;24.30;101114.00;;;;5110714;28;20203;-42
2022/07/24 05:04:15;;;;;;;6.30;4.20;;;23.40;56.10;24.30;101109.00;;;;5111301;28;20601;-42
2022/07/24 05:06:40;;;;;;;4.87;4.00;;;23.40;56.00;24.30;101117.00;;;;5111068;28;20184;-42
2022/07/24 05:09:06;;;;;;;4.43;4.03;;;23.40;56.00;24.30;101122.00;;;;5110737;28;20192;-42
2022/07/24 05:11:32;;;;;;;7.63;4.20;;;23.40;56.00;24.30;101115.00;;;;5109464;28;20255;-42
2022/07/24 05:13:57;;;;;;;5.03;4.13;;;23.40;56.10;24.20;101117.00;;;;5109737;27;20168;-41
2022/07/24 05:16:23;;;;;;;4.50;4.17;;;23.40;56.10;24.20;101116.00;;;;5110046;28;20176;-41
2022/07/24 05:18:49;;;;;;;4.40;4.10;;;23.30;56.10;24.20;101113.00;;;;5114546;28;20184;-43
2022/07/24 05:21:15;;;;;;;4.60;4.20;;;23.40;56.20;24.20;101115.00;;;;5109262;28;20211;-43
2022/07/24 05:23:42;;;;;;;4.10;3.70;;;23.30;56.10;24.20;101114.00;;;;5110893;28;20168;-41
2022/07/24 05:26:08;;;;;;;4.17;3.87;;;23.30;56.00;24.20;101129.00;;;;5110696;28;20271;-43
2022/07/24 05:28:34;;;;;;;4.27;3.90;;;23.40;56.10;24.20;101119.00;;;;5110125;28;20287;-43
2022/07/24 05:31:00;;;;;;;4.30;4.00;;;23.40;56.00;24.20;101107.00;;;;5109823;28;20168;-43
2022/07/24 05:33:26;;;;;;;4.00;3.70;;;23.40;56.20;24.20;101115.00;;;;5109559;28;20183;-43
2022/07/24 05:35:51;;;;;;;4.43;4.03;;;23.40;56.00;24.20;101112.00;;;;5110368;28;20172;-43
2022/07/24 05:38:17;;;;;;;4.30;3.90;;;23.40;56.10;24.20;101115.00;;;;5109842;28;20163;-41
2022/07/24 05:40:43;;;;;;;4.10;3.80;;;23.40;56.00;24.20;101115.00;;;;5109592;28;20234;-43
2022/07/24 05:43:09;;;;;;;3.83;3.53;;;23.40;55.80;24.20;101113.00;;;;5110133;28;20190;-42
2022/07/24 05:45:34;;;;;;;3.97;3.67;;;23.40;55.70;24.20;101118.00;;;;5110056;28;20168;-42
2022/07/24 05:48:00;;;;;;;3.97;3.67;;;23.40;55.60;24.10;101116.00;;;;5109958;28;20168;-42
2022/07/24 05:50:26;;;;;;;4.30;3.90;;;23.40;55.80;24.10;101120.00;;;;5110075;28;20176;-42
2022/07/24 05:52:51;;;;;;;4.13;3.83;;;23.40;55.90;24.10;101130.00;;;;5111464;28;20183;-42
2022/07/24 05:55:17;;;;;;;4.10;3.70;;;23.40;55.70;24.20;101127.00;;;;5112417;28;20586;-42
2022/07/24 05:57:45;;;;;;;4.10;3.80;;;23.40;55.80;24.20;101134.00;;;;5109928;28;20574;-42
2022/07/24 06:00:11;;;;;;;4.50;3.80;;;23.40;55.80;24.20;101125.00;;;;5109754;28;20204;-42
2022/07/24 06:02:37;;;;;;;3.77;3.50;;;23.40;55.90;24.20;101120.00;;;;5109687;28;20203;-42
2022/07/24 06:05:03;;;;;;;3.97;3.67;;;23.40;55.90;24.20;101128.00;;;;5109856;28;20200;-43
2022/07/24 06:07:29;;;;;;;4.20;3.90;;;23.40;55.80;24.20;101115.00;;;;5109674;28;20644;-42
2022/07/24 06:09:55;;;;;;;4.13;3.80;;;23.50;55.80;24.10;101118.00;;;;5109782;28;20211;-42
2022/07/24 06:12:20;;;;;;;4.50;4.10;;;23.50;56.50;24.10;101124.00;;;;5109741;28;20176;-42
2022/07/24 06:14:46;;;;;;;4.30;3.37;;;23.40;55.80;24.10;101120.00;;;;5109788;28;20188;-41
2022/07/24 06:17:12;;;;;;;4.37;3.97;;;23.50;55.90;24.20;101116.00;;;;5116564;28;20176;-42
2022/07/24 06:19:37;;;;;;;4.10;3.70;;;23.40;55.80;24.20;101121.00;;;;5109088;28;20671;-42
2022/07/24 06:22:03;;;;;;;3.80;3.50;;;23.40;55.90;24.10;101118.00;;;;5109208;28;20175;-42
2022/07/24 06:24:29;;;;;;;4.20;3.90;;;23.50;56.00;24.10;101125.00;;;;5108505;28;20173;-42
2022/07/24 06:26:55;;;;;;;4.03;3.63;;;23.50;56.00;24.20;101123.00;;;;5109278;28;20259;-42
2022/07/24 06:29:20;;;;;;;4.57;3.70;;;23.50;56.00;24.20;101132.00;;;;5109217;28;20195;-42
2022/07/24 06:31:46;;;;;;;3.90;3.60;;;23.50;56.20;24.10;101127.00;;;;5109419;28;20225;-42
2022/07/24 06:34:12;;;;;;;4.30;3.90;;;23.50;56.20;24.20;101120.00;;;;5109476;28;20221;-43
2022/07/24 06:36:38;;;;;;;4.00;3.70;;;23.50;56.30;24.10;101124.00;;;;5109178;28;20175;-43
2022/07/24 06:39:03;;;;;;;4.33;3.90;;;23.50;56.40;24.10;101128.00;;;;5107808;28;20192;-42
2022/07/24 06:41:29;;;;;;;4.00;3.70;;;23.50;56.50;24.10;101137.00;;;;5108848;28;20208;-41
2022/07/24 06:43:55;;;;;;;4.30;3.90;;;23.40;56.60;24.10;101134.00;;;;5109217;28;20179;-41
2022/07/24 06:46:20;;;;;;;4.73;3.83;;;23.40;57.10;24.10;101132.00;;;;5125116;27;20168;-42
2022/07/24 06:48:46;;;;;;;4.00;3.70;;;23.40;56.70;24.10;101136.00;;;;5108983;28;20199;-42
2022/07/24 06:51:12;;;;;;;4.07;3.73;;;23.40;56.80;24.10;101138.00;;;;5108883;28;20184;-42
2022/07/24 06:53:40;;;;;;;4.03;3.67;;;23.40;56.80;24.10;101129.00;;;;5109073;28;20180;-41
2022/07/24 06:56:07;;;;;;;4.20;3.60;;;23.40;56.80;24.10;101141.00;;;;5108917;28;20255;-42
2022/07/24 06:58:32;;;;;;;4.17;3.77;;;23.40;56.70;24.10;101139.00;;;;5108878;28;20333;-43
2022/07/24 07:00:58;;;;;;;3.93;3.63;;;23.40;56.80;24.10;101137.00;;;;5108719;28;20285;-42
2022/07/24 07:03:24;;;;;;;4.23;3.90;;;23.40;56.80;24.10;101137.00;;;;5109097;28;20176;-42
2022/07/24 07:05:49;;;;;;;4.17;3.80;;;23.40;57.30;24.10;101143.00;;;;5109156;28;20176;-41
2022/07/24 07:08:15;;;;;;;4.07;3.77;;;23.40;57.20;23.80;101146.00;;;;5108692;28;20177;-43
2022/07/24 07:10:41;;;;;;;4.30;3.90;;;23.40;57.00;24.00;101136.00;;;;5108716;28;20176;-42
2022/07/24 07:13:07;;;;;;;4.20;3.80;;;23.30;56.90;24.10;101146.00;;;;5109164;28;20172;-43
2022/07/24 07:15:32;;;;;;;4.00;3.60;;;23.30;56.90;24.00;101145.00;;;;5109167;28;20257;-43
2022/07/24 07:17:58;;;;;;;4.30;3.90;;;23.30;57.20;24.10;101148.00;;;;5108442;28;20181;-42
2022/07/24 07:20:24;;;;;;;4.47;4.07;;;23.20;57.10;24.10;101152.00;;;;5108442;28;20203;-42
2022/07/24 07:22:50;;;;;;;4.40;4.10;;;23.20;57.20;24.00;101154.00;;;;5108692;28;20834;-42
2022/07/24 07:25:15;;;;;;;4.30;3.90;;;23.20;57.60;24.00;101148.00;;;;5108800;28;20621;-42
2022/07/24 07:27:41;;;;;;;4.27;3.97;;;23.20;57.20;24.00;101153.00;;;;5108482;28;20213;-42
2022/07/24 07:30:08;;;;;;;4.93;4.43;;;23.20;57.30;24.00;101153.00;;;;5108818;28;20192;-41
2022/07/24 07:32:33;;;;;;;4.63;4.23;;;23.20;57.20;24.00;101143.00;;;;5108651;28;20184;-43
2022/07/24 07:34:59;;;;;;;5.30;4.20;;;23.30;57.40;24.10;101152.00;;;;5110724;28;20252;-41
2022/07/24 07:37:25;;;;;;;4.70;4.30;;;23.40;57.30;24.10;101140.00;;;;5112278;28;20184;-42
2022/07/24 07:39:50;;;;;;;4.77;4.37;;;23.40;57.30;24.10;101147.00;;;;5112432;28;20211;-42
2022/07/24 07:42:16;;;;;;;5.07;4.57;;;23.40;57.30;24.10;101145.00;;;;5113169;28;20168;-43
2022/07/24 07:44:42;;;;;;;5.73;5.07;;;23.40;57.50;23.90;101136.00;;;;5105156;28;20199;-43
2022/07/24 07:47:08;;;;;;;5.20;4.77;;;23.40;57.70;24.10;101140.00;;;;5070476;28;20174;-42
2022/07/24 07:49:33;;;;;;;7.17;5.10;;;23.40;58.10;24.10;101145.00;;;;5070861;28;20316;-41
2022/07/24 07:51:59;;;;;;;5.13;4.70;;;23.40;57.70;24.10;101142.00;;;;5070878;28;20197;-42
2022/07/24 07:54:25;;;;;;;6.07;4.90;;;23.40;57.70;24.10;101144.00;;;;5072108;28;20192;-43
2022/07/24 07:56:51;;;;;;;7.33;4.50;;;23.40;57.70;24.10;101147.00;;;;5078342;28;20547;-43
2022/07/24 07:59:16;;;;;;;5.57;4.57;;;23.40;57.70;24.10;101148.00;;;;5075534;28;20596;-42
2022/07/24 08:01:42;;;;;;;5.27;4.87;;;23.50;57.70;24.20;101140.00;;;;5073877;28;20256;-42
2022/07/24 08:04:08;;;;;;;5.33;4.83;;;23.50;57.60;24.20;101137.00;;;;5072114;28;20170;-42
2022/07/24 08:06:33;;;;;;;5.27;4.77;;;23.50;57.50;24.20;101135.00;;;;5072432;28;20192;-42
2022/07/24 08:08:59;;;;;;;5.47;4.97;;;23.50;57.50;24.20;101143.00;;;;5071552;28;20213;-42
2022/07/24 08:11:27;;;;;;;4.93;4.53;;;23.50;57.60;24.00;101102.00;;;;5024962;28;20634;-42
2022/07/24 08:13:53;;;;;;;5.30;4.80;;;23.50;57.50;24.20;101120.00;;;;4974985;28;20179;-42
2022/07/24 08:16:18;;;;;;;5.10;4.60;;;23.50;57.60;24.30;101134.00;;;;5091611;28;20594;-42
2022/07/24 08:18:44;;;;;;;5.20;4.80;;;23.60;58.00;24.30;101115.00;;;;5091510;28;20608;-43
2022/07/24 08:21:10;;;;;;;5.07;4.67;;;23.60;58.10;24.40;101133.00;;;;5091607;28;20193;-43
2022/07/24 08:23:36;;;;;;;5.27;4.87;;;23.60;58.30;24.40;101132.00;;;;5091677;28;20176;-42
2022/07/24 08:26:01;;;;;;;5.60;5.10;;;23.60;58.10;24.40;101138.00;;;;5091718;28;20645;-43
2022/07/24 08:28:27;;;;;;;5.13;4.70;;;23.70;58.30;24.40;101145.00;;;;5090440;28;20203;-42
2022/07/24 08:30:53;;;;;;;6.67;5.13;;;23.70;58.40;24.40;101138.00;;;;5088793;28;20208;-43
2022/07/24 08:33:19;;;;;;;5.40;4.90;;;23.70;59.00;24.40;101127.00;;;;5092455;28;20165;-41
2022/07/24 08:35:45;;;;;;;5.40;4.90;;;23.70;59.00;24.40;101123.00;;;;5096217;28;20207;-39
2022/07/24 08:38:10;;;;;;;6.03;4.73;;;23.70;59.30;24.40;101124.00;;;;5097558;28;20180;-42
2022/07/24 08:40:38;;;;;;;5.90;4.77;;;23.80;59.40;24.50;101117.00;;;;5092491;28;20209;-40
2022/07/24 08:43:08;;;;;;;8.07;4.63;;;23.80;59.40;24.50;101123.00;;;;5087839;28;20165;-40
2022/07/24 08:45:35;;;;;;;7.97;4.73;;;23.80;59.40;24.50;101129.00;;;;5094153;28;20206;-39
2022/07/24 08:48:04;;;;;;;7.13;4.70;;;23.80;59.30;24.50;101128.00;;;;5089615;28;20164;-39
2022/07/24 08:50:32;;;;;;;7.50;4.40;;;23.80;59.60;24.50;101117.00;;;;5091478;28;20165;-39
2022/07/24 08:52:57;;;;;;;10.73;4.80;;;23.80;59.60;24.60;101126.00;;;;5097843;28;20176;-39
2022/07/24 08:55:23;;;;;;;6.67;4.60;;;23.80;59.60;24.60;101125.00;;;;5090124;28;20179;-41
2022/07/24 08:57:49;;;;;;;5.43;4.80;;;23.80;59.60;24.60;101130.00;;;;5090991;28;20173;-40
2022/07/24 09:00:15;;;;;;;5.07;4.67;;;23.80;59.60;24.60;101118.00;;;;5090772;28;20201;-40
2022/07/24 09:02:41;;;;;;;5.77;4.73;;;23.90;59.90;24.60;101121.00;;;;5090678;28;20181;-40
2022/07/24 09:05:07;;;;;;;7.57;4.60;;;23.90;59.90;24.60;101112.00;;;;5091281;28;20220;-40
2022/07/24 09:07:33;;;;;;;5.83;4.70;;;23.90;59.90;24.70;101114.00;;;;5091081;28;20185;-39
2022/07/24 09:10:11;;;;;;;4.83;4.23;;;23.90;59.90;24.70;101111.00;;;;5091196;28;20270;-40
2022/07/24 09:12:41;;;;;;;5.00;4.60;;;24.00;60.00;24.70;101113.00;;;;5090864;28;20184;-41
2022/07/24 09:15:23;;;;;;;4.57;4.27;;;24.00;60.00;24.70;101106.00;;;;5090700;28;20641;-41
2022/07/24 09:17:53;;;;;;;5.13;4.63;;;24.00;60.10;24.70;101105.00;;;;5090498;28;20700;-41
2022/07/24 09:20:20;;;;;;;5.60;4.47;;;24.00;60.20;24.70;101104.00;;;;5090712;28;20201;-40
2022/07/24 09:22:45;;;;;;;4.97;4.50;;;24.10;60.70;24.80;101096.00;;;;5090695;28;20264;-40
2022/07/24 09:25:13;;;;;;;5.13;4.60;;;24.10;60.50;24.80;101086.00;;;;5090854;28;20267;-39
2022/07/24 09:27:56;;;;;;;4.97;4.57;;;24.10;60.70;24.80;101086.00;;;;5090730;28;20683;-41
2022/07/24 09:30:32;;;;;;;5.27;4.77;;;24.10;60.70;24.80;101083.00;;;;5093766;28;20645;-40
2022/07/24 09:33:01;;;;;;;4.80;4.40;;;24.10;60.90;24.80;101069.00;;;;5090331;28;20705;-41
2022/07/24 09:35:43;;;;;;;5.03;4.57;;;24.20;61.00;24.80;101083.00;;;;5089414;28;20169;-42
2022/07/24 09:38:18;;;;;;;5.20;4.80;;;24.20;61.20;24.90;101080.00;;;;5090489;28;20164;-39
2022/07/24 09:40:58;;;;;;;5.03;4.63;;;24.20;61.40;24.90;101075.00;;;;5090120;28;20192;-40
2022/07/24 09:43:31;;;;;;;5.00;4.57;;;24.30;61.30;24.90;101071.00;;;;5090521;28;20318;-40
2022/07/24 09:46:08;;;;;;;5.03;4.53;;;24.30;61.40;24.90;101071.00;;;;5090123;28;20168;-41
2022/07/24 09:48:36;;;;;;;4.90;4.50;;;24.30;61.50;24.90;101062.00;;;;5089971;28;20233;-40
2022/07/24 09:51:16;;;;;;;5.03;4.63;;;24.40;61.50;25.00;101068.00;;;;5090175;28;20180;-40
2022/07/24 09:53:44;;;;;;;5.03;4.53;;;24.40;61.90;25.00;101064.00;;;;5090199;28;20157;-40
2022/07/24 09:56:15;;;;;;;5.17;4.77;;;24.40;62.10;25.00;101066.00;;;;5090216;28;20176;-41
2022/07/24 09:58:45;;;;;;;4.87;4.47;;;24.40;62.20;25.10;101063.00;;;;5089163;28;20199;-39
2022/07/24 10:01:12;;;;;;;5.47;4.97;;;24.40;62.00;25.10;101066.00;;;;5089039;28;20201;-40
2022/07/24 10:03:39;;;;;;;4.83;4.50;;;24.50;61.90;25.10;101055.00;;;;5090097;28;20176;-40
2022/07/24 10:06:08;;;;;;;5.27;4.80;;;24.50;61.90;25.10;101052.00;;;;5089744;28;20662;-40
2022/07/24 10:08:34;;;;;;;5.30;4.90;;;24.40;61.70;25.10;101055.00;;;;5089396;28;20245;-39
2022/07/24 10:11:01;;;;;;;4.70;4.30;;;24.50;62.10;25.20;101050.00;;;;5089678;28;20172;-39
2022/07/24 10:13:30;;;;;;;5.00;4.60;;;24.50;62.80;25.20;101045.00;;;;5089827;28;20169;-40
2022/07/24 10:16:13;;;;;;;5.90;5.10;;;24.60;62.90;25.20;101041.00;;;;5090152;28;20192;-40
2022/07/24 10:18:48;;;;;;;5.10;4.70;;;24.60;62.50;25.30;101044.00;;;;5089632;28;20661;-40
2022/07/24 10:21:42;;;;;;;5.30;4.80;;;24.60;63.00;25.30;101040.00;;;;5092430;28;20195;-41
2022/07/24 10:24:33;;;;;;;5.20;4.80;;;24.60;63.00;25.30;101039.00;;;;5089361;28;20185;-40
2022/07/24 10:27:04;;;;;;;5.07;4.67;;;24.70;63.20;25.30;101030.00;;;;5088740;28;20731;-41
2022/07/24 10:29:30;;;;;;;5.00;4.57;;;24.70;62.90;25.30;101032.00;;;;5089398;28;20192;-39
2022/07/24 10:31:56;;;;;;;5.50;4.93;;;24.70;62.80;25.40;101030.00;;;;5089095;28;20604;-41
2022/07/24 10:34:59;;;;;;;5.00;4.50;;;24.70;62.70;25.40;101017.00;;;;5087930;28;20543;-40
2022/07/24 10:38:01;;;;;;;5.33;4.90;;;24.70;63.30;25.40;101026.00;;;;5091615;28;20179;-41
2022/07/24 10:40:36;;;;;;;4.87;4.47;;;24.70;63.00;25.40;101020.00;;;;5088317;28;20192;-41
2022/07/24 10:43:05;;;;;;;4.93;4.63;;;24.80;63.60;25.50;101027.00;;;;5088359;28;20153;-40
2022/07/24 10:45:32;;;;;;;5.35;4.85;;;24.80;63.60;25.50;101015.00;;;;5089195;28;20551;-42
2022/07/24 10:48:02;;;;;;;5.03;4.63;;;24.80;63.50;25.50;101020.00;;;;5088888;28;20220;-39